createdAt,value
2023-06-11T00:00:40.814Z,101834.44
2023-06-11T00:03:10.072Z,101842.25
2023-06-11T00:05:39.228Z,101846.94
2023-06-11T00:08:10.984Z,101845.31
2023-06-11T00:10:40.093Z,101843.00
2023-06-11T00:13:09.350Z,101834.00
2023-06-11T00:15:39.903Z,101831.94
2023-06-11T00:18:09.112Z,101832.16
2023-06-11T00:20:41.745Z,101834.84
2023-06-11T00:23:11.005Z,101840.50
2023-06-11T00:25:40.216Z,101830.97
2023-06-11T00:28:09.408Z,101837.53
2023-06-11T00:30:40.122Z,101839.19
2023-06-11T00:33:09.329Z,101837.78
2023-06-11T00:35:38.635Z,101838.50
2023-06-11T00:38:08.344Z,101832.06
2023-06-11T00:40:37.823Z,101828.97
2023-06-11T00:43:08.592Z,101835.31
2023-06-11T00:45:39.327Z,101831.34
2023-06-11T00:48:08.517Z,101833.50
2023-06-11T00:50:45.988Z,101834.34
2023-06-11T00:53:15.297Z,101831.03
2023-06-11T00:55:44.421Z,101837.53
2023-06-11T00:58:15.678Z,101837.53
2023-06-11T01:00:50.774Z,101836.75
2023-06-11T01:03:28.428Z,101840.78
2023-06-11T01:06:03.734Z,101836.16
2023-06-11T01:08:39.890Z,101835.81
2023-06-11T01:11:14.996Z,101841.59
2023-06-11T01:13:46.799Z,101840.88
2023-06-11T01:16:22.283Z,101840.53
2023-06-11T01:18:59.337Z,101835.75
2023-06-11T01:21:34.341Z,101847.13
2023-06-11T01:24:13.639Z,101845.09
2023-06-11T01:26:52.035Z,101843.91
2023-06-11T01:29:24.800Z,101844.28
2023-06-11T01:31:56.533Z,101844.06
2023-06-11T01:34:26.768Z,101840.56
2023-06-11T01:36:56.468Z,101845.97
2023-06-11T01:39:26.248Z,101842.63
2023-06-11T01:42:20.355Z,101858.00
2023-06-11T01:44:51.003Z,101860.28
2023-06-11T01:47:22.316Z,101853.34
2023-06-11T01:49:52.272Z,101862.31
2023-06-11T01:52:21.505Z,101862.06
2023-06-11T01:54:50.704Z,101857.50
2023-06-11T01:57:19.890Z,101860.41
2023-06-11T01:59:50.561Z,101852.13
2023-06-11T02:02:19.851Z,101861.00
2023-06-11T02:04:49.015Z,101863.50
2023-06-11T02:07:18.363Z,101861.44
2023-06-11T02:09:47.634Z,101864.84
2023-06-11T02:12:16.849Z,101867.06
2023-06-11T02:14:46.094Z,101849.13
2023-06-11T02:17:16.698Z,101850.81
2023-06-11T02:19:45.964Z,101858.94
2023-06-11T02:22:15.340Z,101858.94
2023-06-11T02:24:44.600Z,101866.72
2023-06-11T02:27:13.779Z,101855.94
2023-06-11T02:29:43.239Z,101855.97
2023-06-11T02:32:14.962Z,101857.16
2023-06-11T02:34:44.279Z,101862.56
2023-06-11T02:37:13.454Z,101863.84
2023-06-11T02:39:42.705Z,101867.56
2023-06-11T02:42:12.133Z,101859.69
2023-06-11T02:44:41.611Z,101860.28
2023-06-11T02:47:10.866Z,101867.34
2023-06-11T02:49:41.345Z,101863.59
2023-06-11T02:52:10.588Z,101871.06
2023-06-11T02:54:39.750Z,101865.66
2023-06-11T02:57:08.962Z,101861.47
2023-06-11T02:59:38.102Z,101869.00
2023-06-11T03:02:07.568Z,101873.91
2023-06-11T03:04:37.300Z,101872.94
2023-06-11T03:07:08.092Z,101881.94
2023-06-11T03:09:37.645Z,101881.94
2023-06-11T03:12:08.132Z,101881.44
2023-06-11T03:14:37.369Z,101882.63
2023-06-11T03:17:06.862Z,101875.97
2023-06-11T03:19:36.290Z,101877.00
2023-06-11T03:22:08.085Z,101883.03
2023-06-11T03:24:37.380Z,101886.59
2023-06-11T03:27:16.353Z,101883.38
2023-06-11T03:29:45.671Z,101882.66
2023-06-11T03:32:14.931Z,101892.09
2023-06-11T03:34:47.635Z,101883.28
2023-06-11T03:37:18.202Z,101892.34
2023-06-11T03:39:47.448Z,101894.75
2023-06-11T03:42:16.744Z,101892.28
2023-06-11T03:44:46.242Z,101891.53
2023-06-11T03:47:17.528Z,101894.75
2023-06-11T03:49:47.260Z,101893.09
2023-06-11T03:52:18.088Z,101888.91
2023-06-11T03:54:47.485Z,101893.31
2023-06-11T03:57:18.940Z,101888.19
2023-06-11T03:59:48.656Z,101884.84
2023-06-11T04:02:18.474Z,101882.66
2023-06-11T04:04:48.216Z,101880.84
2023-06-11T04:07:18.942Z,101883.97
2023-06-11T04:09:48.101Z,101883.34
2023-06-11T04:12:17.703Z,101888.06
2023-06-11T04:14:46.854Z,101890.81
2023-06-11T04:17:16.240Z,101894.16
2023-06-11T04:19:45.663Z,101902.34
2023-06-11T04:22:15.094Z,101892.50
2023-06-11T04:24:46.247Z,101895.34
2023-06-11T04:27:15.635Z,101887.38
2023-06-11T04:29:45.780Z,101892.78
2023-06-11T04:32:18.039Z,101897.03
2023-06-11T04:34:49.708Z,101893.66
2023-06-11T04:37:20.853Z,101889.66
2023-06-11T04:39:52.649Z,101880.88
2023-06-11T04:42:25.698Z,101884.94
2023-06-11T04:44:57.235Z,101878.47
2023-06-11T04:47:30.630Z,101879.28
2023-06-11T04:50:04.208Z,101881.31
2023-06-11T04:52:36.322Z,101868.59
2023-06-11T04:55:10.654Z,101869.63
2023-06-11T04:57:40.901Z,101862.06
2023-06-11T05:00:12.898Z,101864.88
2023-06-11T05:02:45.765Z,101869.47
2023-06-11T05:05:16.338Z,101865.28
2023-06-11T05:07:45.546Z,101865.41
2023-06-11T05:10:18.825Z,101865.13
2023-06-11T05:12:48.071Z,101865.41
2023-06-11T05:15:17.392Z,101874.91
2023-06-11T05:17:47.104Z,101859.72
2023-06-11T05:20:16.871Z,101855.63
2023-06-11T05:22:47.478Z,101861.41
2023-06-11T05:25:20.933Z,101855.81
2023-06-11T05:27:51.760Z,101846.25
2023-06-11T05:30:25.392Z,101840.88
2023-06-11T05:32:59.627Z,101853.16
2023-06-11T05:35:28.840Z,101851.34
2023-06-11T05:37:58.937Z,101850.50
2023-06-11T05:40:29.889Z,101845.25
2023-06-11T05:42:59.122Z,101855.03
2023-06-11T05:45:28.577Z,101852.38
2023-06-11T05:47:58.314Z,101852.69
2023-06-11T05:50:27.875Z,101851.44
2023-06-11T05:52:57.361Z,101855.53
2023-06-11T05:55:26.948Z,101848.47
2023-06-11T05:57:57.487Z,101856.16
2023-06-11T06:00:26.852Z,101851.78
2023-06-11T06:02:57.119Z,101854.22
2023-06-11T06:05:31.057Z,101852.03
2023-06-11T06:08:00.391Z,101852.72
2023-06-11T06:10:29.984Z,101858.50
2023-06-11T06:13:00.661Z,101862.50
2023-06-11T06:15:29.928Z,101862.94
2023-06-11T06:17:59.405Z,101857.41
2023-06-11T06:20:37.716Z,101849.81
2023-06-11T06:23:06.932Z,101848.69
2023-06-11T06:25:39.446Z,101853.03
2023-06-11T06:28:13.089Z,101853.69
2023-06-11T06:30:43.507Z,101859.00
2023-06-11T06:33:14.083Z,101851.69
2023-06-11T06:35:43.323Z,101853.03
2023-06-11T06:38:14.024Z,101854.09
2023-06-11T06:40:45.328Z,101851.97
2023-06-11T06:43:15.872Z,101857.69
2023-06-11T06:45:45.933Z,101858.94
2023-06-11T06:48:25.297Z,101860.44
2023-06-11T06:50:56.403Z,101862.00
2023-06-11T06:53:26.300Z,101861.13
2023-06-11T06:55:55.673Z,101854.84
2023-06-11T06:58:26.347Z,101869.13
2023-06-11T07:00:55.844Z,101852.72
2023-06-11T07:03:25.195Z,101859.38
2023-06-11T07:05:54.818Z,101861.56
2023-06-11T07:08:24.531Z,101848.94
2023-06-11T07:10:56.395Z,101859.19
2023-06-11T07:13:41.193Z,101857.44
2023-06-11T07:16:12.192Z,101856.91
2023-06-11T07:18:45.485Z,101857.34
2023-06-11T07:21:18.029Z,101857.69
2023-06-11T07:23:47.271Z,101858.66
2023-06-11T07:26:19.370Z,101857.63
2023-06-11T07:28:50.929Z,101856.53
2023-06-11T07:31:22.473Z,101862.66
2023-06-11T07:33:54.895Z,101867.84
2023-06-11T07:36:25.299Z,101857.63
2023-06-11T07:38:55.740Z,101867.84
2023-06-11T07:41:26.152Z,101867.22
2023-06-11T07:43:57.028Z,101863.81
2023-06-11T07:46:26.545Z,101858.25
2023-06-11T07:48:59.281Z,101859.22
2023-06-11T07:51:28.538Z,101856.94
2023-06-11T07:54:05.855Z,101863.88
2023-06-11T07:56:36.434Z,101861.41
2023-06-11T07:59:07.958Z,101861.34
2023-06-11T08:01:37.386Z,101869.41
2023-06-11T08:04:07.385Z,101867.91
2023-06-11T08:06:38.923Z,101853.00
2023-06-11T08:09:09.401Z,101858.28
2023-06-11T08:11:38.949Z,101855.19
2023-06-11T08:14:09.421Z,101861.25
2023-06-11T08:16:38.692Z,101855.19
2023-06-11T08:19:08.223Z,101857.63
2023-06-11T08:21:38.098Z,101855.00
2023-06-11T08:24:08.167Z,101847.00
2023-06-11T08:26:37.680Z,101853.53
2023-06-11T08:29:08.538Z,101853.56
2023-06-11T08:31:38.348Z,101851.41
2023-06-11T08:34:07.704Z,101860.28
2023-06-11T08:36:36.898Z,101849.34
2023-06-11T08:39:06.175Z,101857.66
2023-06-11T08:41:37.189Z,101846.22
2023-06-11T08:44:07.903Z,101853.88
2023-06-11T08:46:37.839Z,101852.78
2023-06-11T08:49:09.211Z,101854.25
2023-06-11T08:51:39.910Z,101854.72
2023-06-11T08:54:10.919Z,101846.16
2023-06-11T08:56:41.234Z,101845.56
2023-06-11T08:59:11.796Z,101850.84
2023-06-11T09:01:41.646Z,101844.16
2023-06-11T09:04:11.098Z,101847.28
2023-06-11T09:06:49.881Z,101840.94
2023-06-11T09:09:19.637Z,101844.38
2023-06-11T09:11:49.108Z,101851.16
2023-06-11T09:14:19.709Z,101844.88
2023-06-11T09:16:50.617Z,101843.09
2023-06-11T09:19:21.467Z,101849.13
2023-06-11T09:21:54.465Z,101847.75
2023-06-11T09:24:25.081Z,101849.75
2023-06-11T09:26:55.871Z,101840.00
2023-06-11T09:29:28.665Z,101840.41
2023-06-11T09:32:10.076Z,101847.78
2023-06-11T09:34:43.159Z,101851.38
2023-06-11T09:37:13.270Z,101839.69
2023-06-11T09:39:43.766Z,101854.22
2023-06-11T09:42:23.558Z,101852.41
2023-06-11T09:44:58.656Z,101845.00
2023-06-11T09:47:28.994Z,101842.94
2023-06-11T09:49:59.211Z,101848.47
2023-06-11T09:52:29.154Z,101846.25
2023-06-11T09:54:58.750Z,101850.75
2023-06-11T09:57:30.146Z,101847.00
2023-06-11T10:00:02.063Z,101849.13
2023-06-11T10:02:34.142Z,101853.06
2023-06-11T10:05:03.848Z,101843.91
2023-06-11T10:07:34.647Z,101835.03
2023-06-11T10:10:04.196Z,101842.75
2023-06-11T10:12:35.062Z,101839.63
2023-06-11T10:15:07.009Z,101842.38
2023-06-11T10:17:37.969Z,101848.28
2023-06-11T10:20:18.083Z,101841.78
2023-06-11T10:22:47.361Z,101836.63
2023-06-11T10:25:16.707Z,101840.63
2023-06-11T10:27:46.460Z,101833.50
2023-06-11T10:30:26.432Z,101838.16
2023-06-11T10:32:57.773Z,101837.09
2023-06-11T10:35:30.011Z,101839.59
2023-06-11T10:38:06.987Z,101834.06
2023-06-11T10:40:37.576Z,101834.56
2023-06-11T10:43:17.587Z,101831.78
2023-06-11T10:45:50.110Z,101826.81
2023-06-11T10:48:30.310Z,101822.75
2023-06-11T10:51:03.402Z,101827.03
2023-06-11T10:53:41.010Z,101822.72
2023-06-11T10:56:11.047Z,101825.94
2023-06-11T10:58:41.709Z,101822.41
2023-06-11T11:01:12.767Z,101833.44
2023-06-11T11:03:44.199Z,101819.06
2023-06-11T11:06:14.568Z,101824.84
2023-06-11T11:08:43.745Z,101821.03
2023-06-11T11:11:12.970Z,101819.22
2023-06-11T11:13:42.584Z,101816.75
2023-06-11T11:16:13.290Z,101807.91
2023-06-11T11:18:42.599Z,101811.38
2023-06-11T11:21:11.766Z,101817.22
2023-06-11T11:23:41.144Z,101811.69
2023-06-11T11:26:11.506Z,101807.03
2023-06-11T11:28:40.748Z,101801.22
2023-06-11T11:31:11.887Z,101809.75
2023-06-11T11:33:42.520Z,101808.47
2023-06-11T11:36:14.311Z,101813.59
2023-06-11T11:38:43.545Z,101803.72
2023-06-11T11:41:12.746Z,101799.78
2023-06-11T11:43:44.051Z,101798.81
2023-06-11T11:46:18.218Z,101802.66
2023-06-11T11:48:49.148Z,101793.66
2023-06-11T11:51:18.807Z,101796.00
2023-06-11T11:53:49.007Z,101790.38
2023-06-11T11:56:18.225Z,101784.78
2023-06-11T11:58:48.492Z,101782.75
2023-06-11T12:01:23.261Z,101783.09
2023-06-11T12:04:01.772Z,101786.81
2023-06-11T12:06:36.602Z,101779.59
2023-06-11T12:09:09.581Z,101786.56
2023-06-11T12:11:45.749Z,101788.03
2023-06-11T12:14:28.500Z,101789.19
2023-06-11T12:17:01.926Z,101793.19
2023-06-11T12:19:36.324Z,101787.03
2023-06-11T12:22:12.482Z,101780.59
2023-06-11T12:24:42.272Z,101782.59
2023-06-11T12:27:14.826Z,101777.25
2023-06-11T12:29:55.470Z,101784.88
2023-06-11T12:32:27.674Z,101777.06
2023-06-11T12:35:02.408Z,101780.94
2023-06-11T12:37:38.189Z,101778.22
2023-06-11T12:40:13.187Z,101780.78
2023-06-11T12:42:50.880Z,101785.66
2023-06-11T12:45:24.103Z,101783.38
2023-06-11T12:47:53.930Z,101777.50
2023-06-11T12:50:27.233Z,101773.28
2023-06-11T12:52:57.685Z,101761.97
2023-06-11T12:55:27.395Z,101765.25
2023-06-11T12:57:56.573Z,101775.47
2023-06-11T13:00:27.901Z,101771.81
2023-06-11T13:02:58.624Z,101775.94
2023-06-11T13:05:29.563Z,101768.88
2023-06-11T13:07:59.450Z,101774.44
2023-06-11T13:10:39.623Z,101767.00
2023-06-11T13:13:14.503Z,101771.47
2023-06-11T13:15:48.620Z,101764.06
2023-06-11T13:18:22.330Z,101763.09
2023-06-11T13:20:57.417Z,101768.31
2023-06-11T13:23:33.427Z,101772.75
2023-06-11T13:26:07.959Z,101762.53
2023-06-11T13:28:44.386Z,101766.25
2023-06-11T13:31:18.229Z,101763.34
2023-06-11T13:33:52.259Z,101763.84
2023-06-11T13:36:27.136Z,101762.31
2023-06-11T13:39:05.390Z,101758.50
2023-06-11T13:41:35.946Z,101761.91
2023-06-11T13:44:09.632Z,101759.06
2023-06-11T13:46:39.403Z,101766.53
2023-06-11T13:49:10.430Z,101764.31
2023-06-11T13:51:43.796Z,101762.19
2023-06-11T13:54:18.059Z,101756.72
2023-06-11T13:56:52.489Z,101755.66
2023-06-11T13:59:23.309Z,101758.78
2023-06-11T14:01:55.950Z,101747.75
2023-06-11T14:04:25.255Z,101753.84
2023-06-11T14:06:56.360Z,101754.31
2023-06-11T14:09:25.662Z,101760.06
2023-06-11T14:11:54.936Z,101754.38
2023-06-11T14:14:24.756Z,101753.41
2023-06-11T14:16:54.022Z,101761.50
2023-06-11T14:19:23.467Z,101764.88
2023-06-11T14:21:53.436Z,101758.22
2023-06-11T14:24:24.861Z,101755.97
2023-06-11T14:26:55.763Z,101764.59
2023-06-11T14:29:25.052Z,101755.19
2023-06-11T14:32:01.463Z,101755.84
2023-06-11T14:34:31.095Z,101749.63
2023-06-11T14:37:00.428Z,101753.47
2023-06-11T14:39:31.887Z,101742.34
2023-06-11T14:42:01.080Z,101744.34
2023-06-11T14:44:30.611Z,101745.25
2023-06-11T14:46:59.808Z,101754.53
2023-06-11T14:49:29.076Z,101747.53
2023-06-11T14:52:00.758Z,101740.63
2023-06-11T14:54:31.602Z,101746.72
2023-06-11T14:57:00.800Z,101738.34
2023-06-11T14:59:29.977Z,101745.66
2023-06-11T15:01:59.335Z,101744.16
2023-06-11T15:04:28.849Z,101750.50
2023-06-11T15:06:58.972Z,101747.22
2023-06-11T15:09:31.814Z,101750.88
2023-06-11T15:12:08.792Z,101741.06
2023-06-11T15:14:44.310Z,101741.56
2023-06-11T15:17:24.198Z,101749.53
2023-06-11T15:20:02.728Z,101740.09
2023-06-11T15:22:41.298Z,101743.03
2023-06-11T15:25:15.987Z,101742.34
2023-06-11T15:27:45.676Z,101742.28
2023-06-11T15:30:15.721Z,101745.69
2023-06-11T15:32:49.932Z,101749.38
2023-06-11T15:35:23.999Z,101735.16
2023-06-11T15:37:56.761Z,101729.53
2023-06-11T15:40:32.031Z,101728.97
2023-06-11T15:43:19.841Z,101731.50
2023-06-11T15:45:53.113Z,101732.53
2023-06-11T15:48:26.351Z,101722.59
2023-06-11T15:51:00.153Z,101729.50
2023-06-11T15:53:33.739Z,101725.59
2023-06-11T15:56:10.454Z,101728.47
2023-06-11T15:58:43.238Z,101733.03
2023-06-11T16:01:17.035Z,101729.91
2023-06-11T16:03:51.752Z,101724.59
2023-06-11T16:06:25.671Z,101728.13
2023-06-11T16:09:01.277Z,101727.66
2023-06-11T16:11:37.251Z,101727.25
2023-06-11T16:14:10.270Z,101724.13
2023-06-11T16:16:40.617Z,101730.81
2023-06-11T16:19:23.526Z,101724.78
2023-06-11T16:21:57.600Z,101719.00
2023-06-11T16:24:30.262Z,101727.72
2023-06-11T16:27:01.298Z,101728.09
2023-06-11T16:29:31.904Z,101723.09
2023-06-11T16:32:04.796Z,101723.09
2023-06-11T16:34:36.311Z,101716.25
2023-06-11T16:37:06.437Z,101719.03
2023-06-11T16:39:35.922Z,101716.03
2023-06-11T16:42:08.309Z,101718.75
2023-06-11T16:44:38.219Z,101709.75
2023-06-11T16:47:08.084Z,101711.75
2023-06-11T16:49:37.658Z,101713.00
2023-06-11T16:52:07.798Z,101715.97
2023-06-11T16:54:38.510Z,101710.56
2023-06-11T16:57:11.167Z,101711.00
2023-06-11T16:59:45.799Z,101712.16
2023-06-11T17:02:16.040Z,101704.53
2023-06-11T17:04:45.571Z,101708.53
2023-06-11T17:07:19.992Z,101701.38
2023-06-11T17:09:51.896Z,101704.47
2023-06-11T17:12:22.524Z,101704.94
2023-06-11T17:14:54.425Z,101700.47
2023-06-11T17:17:24.297Z,101696.88
2023-06-11T17:19:53.535Z,101697.44
2023-06-11T17:22:24.189Z,101699.16
2023-06-11T17:24:55.560Z,101690.81
2023-06-11T17:27:26.348Z,101691.56
2023-06-11T17:29:55.705Z,101686.72
2023-06-11T17:32:25.404Z,101695.78
2023-06-11T17:34:57.150Z,101688.00
2023-06-11T17:37:26.746Z,101691.75
2023-06-11T17:39:56.237Z,101689.06
2023-06-11T17:42:27.294Z,101701.31
2023-06-11T17:44:56.675Z,101690.16
2023-06-11T17:47:26.820Z,101685.00
2023-06-11T17:49:56.027Z,101688.03
2023-06-11T17:52:25.475Z,101698.75
2023-06-11T17:54:55.041Z,101684.53
2023-06-11T17:57:26.186Z,101693.44
2023-06-11T17:59:57.284Z,101692.47
2023-06-11T18:02:27.218Z,101695.84
2023-06-11T18:04:56.724Z,101697.47
2023-06-11T18:07:26.291Z,101697.72
2023-06-11T18:09:55.501Z,101695.44
2023-06-11T18:12:24.716Z,101699.25
2023-06-11T18:14:54.039Z,101704.44
2023-06-11T18:17:25.541Z,101703.41
2023-06-11T18:19:55.620Z,101697.22
2023-06-11T18:22:27.781Z,101703.00
2023-06-11T18:24:57.553Z,101692.69
2023-06-11T18:27:27.216Z,101696.19
2023-06-11T18:29:57.092Z,101699.00
2023-06-11T18:32:28.079Z,101691.09
2023-06-11T18:35:00.172Z,101693.63
2023-06-11T18:37:31.905Z,101694.63
2023-06-11T18:40:01.527Z,101701.50
2023-06-11T18:42:31.121Z,101694.50
2023-06-11T18:45:02.813Z,101695.50
2023-06-11T18:47:37.077Z,101694.22
2023-06-11T18:50:08.308Z,101692.41
2023-06-11T18:52:37.615Z,101694.91
2023-06-11T18:55:08.389Z,101681.44
2023-06-11T18:57:41.666Z,101683.59
2023-06-11T19:00:12.916Z,101678.81
2023-06-11T19:02:44.216Z,101689.94
2023-06-11T19:05:14.104Z,101698.88
2023-06-11T19:07:43.338Z,101695.38
2023-06-11T19:10:13.393Z,101697.03
2023-06-11T19:12:44.034Z,101697.38
2023-06-11T19:15:16.699Z,101699.34
2023-06-11T19:17:49.563Z,101693.19
2023-06-11T19:20:19.839Z,101702.63
2023-06-11T19:22:49.474Z,101705.94
2023-06-11T19:25:19.196Z,101713.06
2023-06-11T19:27:48.897Z,101709.34
2023-06-11T19:30:18.309Z,101713.28
2023-06-11T19:32:49.328Z,101712.75
2023-06-11T19:35:19.150Z,101713.06
2023-06-11T19:37:50.228Z,101712.34
2023-06-11T19:40:19.774Z,101716.34
2023-06-11T19:42:49.407Z,101718.91
2023-06-11T19:45:19.567Z,101719.56
2023-06-11T19:47:55.686Z,101733.47
2023-06-11T19:50:27.189Z,101722.22
2023-06-11T19:53:03.155Z,101725.41
2023-06-11T19:55:33.276Z,101731.34
2023-06-11T19:58:03.849Z,101735.19
2023-06-11T20:00:34.134Z,101728.41
2023-06-11T20:03:06.516Z,101733.25
2023-06-11T20:05:40.373Z,101732.94
2023-06-11T20:08:10.126Z,101733.72
2023-06-11T20:10:40.509Z,101739.41
2023-06-11T20:13:12.215Z,101746.38
2023-06-11T20:15:41.487Z,101739.72
2023-06-11T20:18:12.165Z,101748.41
2023-06-11T20:20:41.754Z,101748.78
2023-06-11T20:23:12.595Z,101757.72
2023-06-11T20:25:42.073Z,101756.34
2023-06-11T20:28:13.560Z,101748.91
2023-06-11T20:30:44.247Z,101760.34
2023-06-11T20:33:15.847Z,101757.94
2023-06-11T20:35:46.602Z,101764.13
2023-06-11T20:38:18.061Z,101766.19
2023-06-11T20:40:47.758Z,101762.19
2023-06-11T20:43:16.917Z,101772.50
2023-06-11T20:45:54.539Z,101766.09
2023-06-11T20:48:28.804Z,101771.84
2023-06-11T20:50:58.261Z,101777.13
2023-06-11T20:53:34.380Z,101773.81
2023-06-11T20:56:04.286Z,101774.63
2023-06-11T20:58:33.502Z,101773.41
2023-06-11T21:01:03.354Z,101775.69
2023-06-11T21:03:33.952Z,101780.44
2023-06-11T21:06:03.593Z,101780.31
2023-06-11T21:08:35.195Z,101782.63
2023-06-11T21:11:04.845Z,101777.25
2023-06-11T21:13:34.802Z,101785.91
2023-06-11T21:16:04.482Z,101787.56
2023-06-11T21:18:36.145Z,101794.56
2023-06-11T21:21:07.228Z,101796.78
2023-06-11T21:23:36.703Z,101788.41
2023-06-11T21:26:06.377Z,101792.44
2023-06-11T21:28:37.146Z,101790.81
2023-06-11T21:31:06.374Z,101780.63
2023-06-11T21:33:37.180Z,101786.59
2023-06-11T21:36:06.986Z,101790.81
2023-06-11T21:38:36.158Z,101790.09
2023-06-11T21:41:05.269Z,101798.31
2023-06-11T21:43:34.496Z,101802.78
2023-06-11T21:46:03.677Z,101801.38
2023-06-11T21:48:32.871Z,101803.59
2023-06-11T21:51:03.371Z,101805.28
2023-06-11T21:53:32.513Z,101802.50
2023-06-11T21:56:01.806Z,101810.44
2023-06-11T21:58:30.934Z,101806.66
2023-06-11T22:01:00.218Z,101802.50
2023-06-11T22:03:29.573Z,101802.34
2023-06-11T22:05:59.700Z,101803.47
2023-06-11T22:08:30.557Z,101807.38
2023-06-11T22:10:59.675Z,101803.31
2023-06-11T22:13:31.330Z,101797.78
2023-06-11T22:16:00.486Z,101800.25
2023-06-11T22:18:30.071Z,101801.50
2023-06-11T22:20:59.975Z,101797.91
2023-06-11T22:23:48.926Z,101795.94
2023-06-11T22:26:19.378Z,101796.91
2023-06-11T22:28:48.660Z,101788.69
2023-06-11T22:31:17.917Z,101792.00
2023-06-11T22:33:47.335Z,101793.56
2023-06-11T22:36:16.897Z,101794.41
2023-06-11T22:38:47.497Z,101790.91
2023-06-11T22:41:16.631Z,101798.41
2023-06-11T22:43:45.882Z,101792.00
2023-06-11T22:46:15.035Z,101794.38
2023-06-11T22:48:44.132Z,101795.50
2023-06-11T22:51:14.152Z,101792.97
2023-06-11T22:53:43.354Z,101792.97
2023-06-11T22:56:14.043Z,101793.53
2023-06-11T22:58:43.193Z,101793.53
2023-06-11T23:01:12.365Z,101789.78
2023-06-11T23:03:41.631Z,101792.97
2023-06-11T23:06:11.397Z,101793.66
2023-06-11T23:08:41.666Z,101786.03
2023-06-11T23:11:11.017Z,101790.91
2023-06-11T23:13:41.508Z,101784.22
2023-06-11T23:16:11.532Z,101785.47
2023-06-11T23:18:41.299Z,101773.88
2023-06-11T23:21:11.613Z,101780.56
2023-06-11T23:23:43.042Z,101770.69
2023-06-11T23:26:13.886Z,101780.16
2023-06-11T23:28:44.375Z,101779.88
2023-06-11T23:31:13.489Z,101775.13
2023-06-11T23:33:42.853Z,101776.38
2023-06-11T23:36:13.574Z,101775.25
2023-06-11T23:38:42.912Z,101773.03
2023-06-11T23:41:12.484Z,101764.41
2023-06-11T23:43:43.042Z,101769.13
2023-06-11T23:46:13.261Z,101768.13
2023-06-11T23:48:42.810Z,101761.44
2023-06-11T23:51:12.470Z,101772.75
2023-06-11T23:53:41.632Z,101765.22
2023-06-11T23:56:10.869Z,101764.53
2023-06-11T23:58:40.054Z,101762.13
